Tasia — ZGFX6 — position and weather

sailwx.info

Track history (hours):
 
Tides and Currents Weather Stations Pressure Air Temp Water Temp Dewpoint Dewpoint Depression Visibility Wind Speed Wind Dir Waves Ship Positions

Tasia

Last reported at 2017-Oct-15 18:11 UTC. Time now 2017-Oct-20 01:46 UTC.
Position N 33°37' W 117°56'.

Length 34 m.

Type: Pleasure craft. MMSI: 319102700.

Date/timePositionNaut miles runAvg speedWind from/ knotsBaromVisibWave heightAir tempDewpointWater temp
2017-Oct-15 18:11N 33°37' W 117°56'0 1.3
2017-Oct-15 18:00N 33°37' W 117°55'0 0.5
2017-Oct-15 17:30N 33°37' W 117°55'1 1.1
2017-Oct-15 17:00N 33°37' W 117°55'0 0.0
2017-Oct-15 16:27N 33°37' W 117°55'0 0.0
2017-Oct-15 16:00N 33°37' W 117°55'0 0.0
2017-Oct-15 15:30N 33°37' W 117°55'0 0.0
2017-Oct-15 15:00N 33°37' W 117°55'0 0.0
2017-Oct-15 14:00N 33°37' W 117°55'0 0.0
2017-Oct-15 13:30N 33°37' W 117°55'0 0.0
2017-Oct-15 13:00N 33°37' W 117°55'0 0.0
2017-Oct-15 12:30N 33°37' W 117°55'0 0.0
2017-Oct-15 11:57N 33°37' W 117°55'0 0.0
2017-Oct-15 11:30N 33°37' W 117°55'0 0.0
2017-Oct-15 10:57N 33°37' W 117°55'0 0.0
2017-Oct-15 10:30N 33°37' W 117°55'0 0.0
2017-Oct-15 10:00N 33°37' W 117°55'0 0.0
2017-Oct-15 09:30N 33°37' W 117°55'0 0.0
2017-Oct-15 09:00N 33°37' W 117°55'0 0.0
2017-Oct-15 08:27N 33°37' W 117°55'0 0.0
2017-Oct-15 08:00N 33°37' W 117°55'0 0.0
2017-Oct-15 07:12N 33°37' W 117°55'0 0.0
2017-Oct-15 07:00N 33°37' W 117°55'0 0.0
2017-Oct-15 06:24N 33°37' W 117°55'0 0.0
2017-Oct-15 05:54N 33°37' W 117°55'0 0.0
2017-Oct-15 05:24N 33°37' W 117°55'0 0.0
2017-Oct-15 05:00N 33°37' W 117°55'0 0.0
2017-Oct-15 03:54N 33°37' W 117°55'0 0.0
2017-Oct-15 03:30N 33°37' W 117°55'0 0.0
2017-Oct-15 02:51N 33°37' W 117°55'0 0.0
2017-Oct-15 02:24N 33°37' W 117°55'0 0.0
2017-Oct-15 02:00N 33°37' W 117°55'0 0.0
2017-Oct-15 01:30N 33°37' W 117°55'0 0.0
2017-Oct-15 01:00N 33°37' W 117°55'0 0.0
2017-Oct-15 00:30N 33°37' W 117°55'0 0.0
2017-Oct-15 00:00N 33°37' W 117°55'0 0.0
2017-Oct-14 23:30N 33°37' W 117°55'0 0.0
2017-Oct-14 23:00N 33°37' W 117°55'0 0.0
2017-Oct-14 22:30N 33°37' W 117°55'0 0.0
2017-Oct-14 22:00N 33°37' W 117°55'0 0.0
2017-Oct-14 20:21N 33°37' W 117°55'0 0.0
2017-Oct-14 20:00N 33°37' W 117°55'0 0.0
2017-Oct-14 19:27N 33°37' W 117°55'1 1.3
2017-Oct-14 19:00N 33°37' W 117°54'2 4.8
2017-Oct-14 18:30N 33°34' W 117°54'4 7.2
2017-Oct-14 17:58N 33°32' W 117°58'510.1
2017-Oct-14 17:30N 33°35' W 117°53'1 1.0
2017-Oct-14 16:57N 33°35' W 117°53'0 1.1
2017-Oct-14 16:30N 33°36' W 117°53'2 4.2
2017-Oct-14 16:00N 33°37' W 117°55'0 0.0
2017-Oct-14 13:24N 33°37' W 117°55'0 0.0
2017-Oct-14 12:54N 33°37' W 117°55'0 0.0
2017-Oct-14 12:27N 33°37' W 117°55'0 0.0
2017-Oct-14 11:48N 33°37' W 117°55'0 0.0
2017-Oct-14 11:24N 33°37' W 117°55'0 0.0
2017-Oct-14 10:57N 33°37' W 117°55'0 0.0
2017-Oct-14 08:28N 33°37' W 117°55'0 0.0
2017-Oct-14 07:19N 33°37' W 117°55'0 0.0
2017-Oct-14 06:58N 33°37' W 117°55'0 0.0
2017-Oct-14 06:04N 33°37' W 117°55'0 0.0
2017-Oct-14 04:10N 33°37' W 117°55'0 0.0
2017-Oct-14 03:55N 33°37' W 117°55'0 0.0
2017-Oct-14 03:30N 33°37' W 117°55'0 0.0
2017-Oct-14 03:01N 33°37' W 117°55'0 0.0
2017-Oct-14 02:25N 33°37' W 117°55'0 0.0
2017-Oct-14 01:37N 33°37' W 117°55'0 0.0
2017-Oct-13 23:49N 33°37' W 117°55'0 0.0
2017-Oct-13 23:24N 33°37' W 117°55'0 0.0
2017-Oct-13 19:25N 33°37' W 117°55'0 0.0
2017-Oct-13 18:55N 33°37' W 117°55'0 0.0
2017-Oct-13 18:25N 33°37' W 117°55'0 0.0
2017-Oct-13 17:55N 33°37' W 117°55'0 0.0
2017-Oct-13 15:55N 33°37' W 117°55'0 0.0
2017-Oct-13 15:27N 33°37' W 117°55'0 0.0
2017-Oct-13 14:31N 33°37' W 117°55'0 0.0
2017-Oct-13 14:13N 33°37' W 117°55'0 0.0
2017-Oct-13 11:49N 33°37' W 117°55'0 0.0
2017-Oct-13 11:01N 33°37' W 117°55'0 0.0
2017-Oct-13 10:58N 33°37' W 117°55'0 0.0
2017-Oct-13 10:31N 33°37' W 117°55'0 0.0
2017-Oct-13 10:01N 33°37' W 117°55'0 0.0
2017-Oct-13 09:31N 33°37' W 117°55'0 0.0
2017-Oct-13 08:01N 33°37' W 117°55'0 0.0
2017-Oct-13 07:28N 33°37' W 117°55'0 0.0
2017-Oct-13 06:01N 33°37' W 117°55'0 0.0
2017-Oct-13 05:43N 33°37' W 117°55'0 0.0
2017-Oct-13 05:22N 33°37' W 117°55'0 0.0
2017-Oct-13 02:49N 33°37' W 117°55'0 0.0
2017-Oct-13 02:25N 33°37' W 117°55'0 0.0
2017-Oct-12 21:01N 33°37' W 117°55'0 0.0
2017-Oct-12 13:34N 33°37' W 117°55'0 0.0
2017-Oct-12 13:22N 33°37' W 117°55'0 0.0
2017-Oct-12 12:52N 33°37' W 117°55'0 0.0
2017-Oct-12 12:25N 33°37' W 117°55'0 0.0
2017-Oct-12 10:04N 33°37' W 117°55'0 0.0
2017-Oct-12 09:58N 33°37' W 117°55'0 0.0
2017-Oct-12 07:58N 33°37' W 117°55'0 0.0
2017-Oct-12 04:10N 33°37' W 117°55'0 0.0
2017-Oct-12 03:25N 33°37' W 117°55'0 0.0
2017-Oct-12 02:58N 33°37' W 117°55'0 0.0
2017-Oct-11 23:58N 33°37' W 117°55'0 0.0
2017-Oct-11 22:43N 33°37' W 117°55'0 0.0
2017-Oct-11 22:28N 33°37' W 117°55'0 0.0
2017-Oct-11 21:58N 33°37' W 117°55'0 0.0
2017-Oct-11 21:28N 33°37' W 117°55'0 0.0
2017-Oct-11 17:10N 33°37' W 117°55'0 0.0
2017-Oct-10 23:58N 33°37' W 117°55'0 0.0
2017-Oct-10 23:22N 33°37' W 117°55'0 0.0
2017-Oct-10 22:58N 33°37' W 117°55'0 0.0
2017-Oct-10 22:22N 33°37' W 117°55'0 0.0
2017-Oct-10 21:58N 33°37' W 117°55'0 0.0
2017-Oct-10 21:28N 33°37' W 117°55'0 0.0
2017-Oct-10 20:58N 33°37' W 117°55'0 0.0
2017-Oct-10 20:28N 33°37' W 117°55'0 0.0
2017-Oct-10 19:58N 33°37' W 117°55'0 0.0
2017-Oct-10 19:28N 33°37' W 117°55'0 0.0
2017-Oct-10 18:58N 33°37' W 117°55'0 0.0
2017-Oct-10 18:28N 33°37' W 117°55'0 0.0
2017-Oct-10 17:58N 33°37' W 117°55'0 0.0
2017-Oct-10 17:28N 33°37' W 117°55'0 0.0
2017-Oct-10 16:58N 33°37' W 117°55'0 0.0
2017-Oct-10 16:28N 33°37' W 117°55'0 0.0
2017-Oct-10 15:58N 33°37' W 117°55'0 0.0
2017-Oct-10 15:22N 33°37' W 117°55'0 0.0
2017-Oct-10 14:55N 33°37' W 117°55'0 0.0
2017-Oct-10 13:58N 33°37' W 117°55'0 0.0
2017-Oct-10 13:28N 33°37' W 117°55'0 0.0
2017-Oct-10 12:58N 33°37' W 117°55'0 0.0
2017-Oct-10 11:28N 33°37' W 117°55'0 0.0
2017-Oct-10 10:58N 33°37' W 117°55'0 0.0
2017-Oct-10 10:28N 33°37' W 117°55'0 0.0
2017-Oct-10 09:58N 33°37' W 117°55'0 0.0
2017-Oct-10 09:28N 33°37' W 117°55'0 0.0
2017-Oct-10 08:58N 33°37' W 117°55'0 0.0
2017-Oct-10 07:34N 33°37' W 117°55'0 0.0
2017-Oct-10 07:10N 33°37' W 117°55'0 0.0
2017-Oct-10 06:52N 33°37' W 117°55'0 0.0
2017-Oct-10 06:25N 33°37' W 117°55'0 0.0
2017-Oct-10 05:58N 33°37' W 117°55'0 0.0
2017-Oct-10 05:25N 33°37' W 117°55'0 0.0
2017-Oct-10 04:58N 33°37' W 117°55'0 0.0
2017-Oct-10 04:28N 33°37' W 117°55'0 0.0
2017-Oct-10 03:58N 33°37' W 117°55'0 0.0
2017-Oct-10 03:10N 33°37' W 117°55'0 0.0
2017-Oct-10 02:55N 33°37' W 117°55'0 0.0
2017-Oct-10 02:28N 33°37' W 117°55'0 0.0
2017-Oct-10 01:55N 33°37' W 117°55'0 0.0
2017-Oct-10 01:28N 33°37' W 117°55'0 0.0
2017-Oct-10 00:58N 33°37' W 117°55'0 0.0
2017-Oct-10 00:28N 33°37' W 117°55'0 0.0
2017-Oct-09 23:58N 33°37' W 117°55'0 0.0
2017-Oct-09 23:28N 33°37' W 117°55'0 0.0
2017-Oct-09 22:58N 33°37' W 117°55'0 0.0
2017-Oct-09 22:28N 33°37' W 117°55'0 0.0
2017-Oct-09 21:55N 33°37' W 117°55'0 0.0
2017-Oct-09 21:30N 33°37' W 117°55'0 0.0
2017-Oct-09 21:00N 33°37' W 117°55'0 0.0
2017-Oct-09 20:30N 33°37' W 117°55'0 0.0
2017-Oct-09 19:57N 33°37' W 117°55'0 0.0
2017-Oct-09 19:09N 33°37' W 117°55'0 0.0
2017-Oct-09 18:09N 33°37' W 117°55'0 0.0
2017-Oct-09 17:51N 33°37' W 117°55'0 0.0
2017-Oct-09 17:09N 33°37' W 117°55'0 0.0
2017-Oct-09 15:09N 33°37' W 117°55'0 0.0
2017-Oct-09 14:57N 33°37' W 117°55'0 0.0
2017-Oct-09 14:21N 33°37' W 117°55'0 0.0
2017-Oct-09 13:39N 33°37' W 117°55'0 0.0
2017-Oct-09 13:27N 33°37' W 117°55'0 0.0
2017-Oct-09 12:51N 33°37' W 117°55'0 0.0
2017-Oct-09 12:03N 33°37' W 117°55'0 0.0
2017-Oct-09 11:57N 33°37' W 117°55'0 0.0
2017-Oct-09 10:45N 33°37' W 117°55'0 0.0
2017-Oct-09 10:27N 33°37' W 117°55'0 0.0
2017-Oct-09 09:57N 33°37' W 117°55'0 0.0
2017-Oct-09 08:57N 33°37' W 117°55'0 0.0
2017-Oct-09 08:27N 33°37' W 117°55'0 0.0
2017-Oct-09 07:57N 33°37' W 117°55'0 0.0
2017-Oct-09 07:15N 33°37' W 117°55'0 0.0
2017-Oct-09 06:57N 33°37' W 117°55'0 0.0
2017-Oct-09 06:27N 33°37' W 117°55'0 0.0
2017-Oct-09 05:45N 33°37' W 117°55'0 0.0
2017-Oct-09 05:27N 33°37' W 117°55'0 0.0
2017-Oct-09 04:54N 33°37' W 117°55'0 0.0
2017-Oct-09 04:09N 33°37' W 117°55'0 0.0
2017-Oct-09 04:00N 33°37' W 117°55'0 0.0
2017-Oct-09 03:21N 33°37' W 117°55'0 0.0
2017-Oct-09 02:57N 33°37' W 117°55'0 0.0
2017-Oct-09 02:21N 33°37' W 117°55'0 0.0
2017-Oct-09 01:45N 33°37' W 117°55'0 0.0
2017-Oct-09 01:21N 33°37' W 117°55'0 0.0
2017-Oct-09 00:09N 33°37' W 117°55'0 0.0
2017-Oct-08 23:45N 33°37' W 117°55'0 0.0
2017-Oct-08 23:27N 33°37' W 117°55'0 0.0
2017-Oct-08 23:00N 33°37' W 117°55'0 0.0
2017-Oct-08 22:15N 33°37' W 117°55'0 0.0
2017-Oct-08 21:57N 33°37' W 117°55'0 0.0
2017-Oct-08 21:15N 33°37' W 117°55'0 0.0
2017-Oct-08 20:09N 33°37' W 117°55'0 0.0
2017-Oct-08 19:45N 33°37' W 117°55'0 0.0
2017-Oct-08 19:15N 33°37' W 117°55'0 0.0
2017-Oct-08 18:57N 33°37' W 117°55'0 0.0
2017-Oct-08 18:15N 33°37' W 117°55'0 0.0
2017-Oct-08 17:51N 33°37' W 117°55'0 0.0
2017-Oct-08 17:03N 33°37' W 117°55'0 0.0
2017-Oct-08 16:51N 33°37' W 117°55'0 0.0
2017-Oct-08 16:27N 33°37' W 117°55'0 0.0
2017-Oct-08 15:57N 33°37' W 117°55'0 0.0
2017-Oct-08 15:27N 33°37' W 117°55'0 0.0
2017-Oct-08 14:57N 33°37' W 117°55'0 0.0
2017-Oct-08 14:24N 33°37' W 117°55'0 0.0
2017-Oct-08 14:00N 33°37' W 117°55'0 0.0
2017-Oct-08 13:30N 33°37' W 117°55'0 0.0
2017-Oct-08 12:51N 33°37' W 117°55'0 0.0
2017-Oct-08 12:30N 33°37' W 117°55'0 0.0
2017-Oct-08 12:00N 33°37' W 117°55'0 0.0
2017-Oct-08 10:54N 33°37' W 117°55'0 0.0
2017-Oct-08 10:27N 33°37' W 117°55'0 0.0
2017-Oct-08 09:45N 33°37' W 117°55'0 0.0
2017-Oct-08 09:30N 33°37' W 117°55'0 0.0
2017-Oct-08 09:00N 33°37' W 117°55'0 0.0
2017-Oct-08 08:27N 33°37' W 117°55'0 0.0
2017-Oct-08 08:00N 33°37' W 117°55'0 0.0
2017-Oct-08 07:30N 33°37' W 117°55'0 0.0
2017-Oct-08 07:00N 33°37' W 117°55'0 0.0
2017-Oct-08 06:15N 33°37' W 117°55'0 0.0
2017-Oct-08 06:00N 33°37' W 117°55'0 0.0
2017-Oct-08 05:27N 33°37' W 117°55'0 0.0
2017-Oct-08 05:00N 33°37' W 117°55'0 0.0
2017-Oct-08 04:30N 33°37' W 117°55'0 0.0
2017-Oct-08 03:57N 33°37' W 117°55'0 0.0
2017-Oct-08 03:27N 33°37' W 117°55'0 0.0
2017-Oct-08 02:45N 33°37' W 117°55'0 0.0
2017-Oct-08 02:21N 33°37' W 117°55'0 0.0
2017-Oct-08 01:45N 33°37' W 117°55'0 0.0
2017-Oct-08 01:24N 33°37' W 117°55'0 0.0
2017-Oct-08 01:00N 33°37' W 117°55'0 0.0
2017-Oct-08 00:30N 33°37' W 117°55'0 0.0
2017-Oct-07 23:51N 33°37' W 117°55'0 0.0
2017-Oct-07 21:09N 33°37' W 117°55'0 0.0
2017-Oct-07 20:57N 33°37' W 117°55'0 0.0
2017-Oct-07 20:30N 33°37' W 117°55'0 0.0
2017-Oct-07 19:57N 33°37' W 117°55'0 0.0
2017-Oct-07 17:51N 33°37' W 117°55'0 0.0
2017-Oct-07 17:30N 33°37' W 117°55'0 0.0
2017-Oct-07 17:00N 33°37' W 117°55'0 0.0
2017-Oct-07 16:30N 33°37' W 117°55'0 0.0
2017-Oct-07 16:00N 33°37' W 117°55'0 0.0
2017-Oct-07 15:24N 33°37' W 117°55'0 0.0
2017-Oct-07 14:57N 33°37' W 117°55'0 0.0
2017-Oct-07 12:03N 33°37' W 117°55'0 0.0
2017-Oct-07 12:00N 33°37' W 117°55'0 0.0
2017-Oct-07 11:18N 33°37' W 117°55'0 0.0
2017-Oct-07 10:33N 33°37' W 117°55'0 0.0
2017-Oct-07 10:27N 33°37' W 117°55'0 0.0
2017-Oct-07 09:45N 33°37' W 117°55'0 0.0
2017-Oct-07 09:27N 33°37' W 117°55'0 0.0
2017-Oct-07 09:00N 33°37' W 117°55'0 0.0
2017-Oct-07 08:30N 33°37' W 117°55'0 0.0
2017-Oct-07 08:00N 33°37' W 117°55'0 0.0
2017-Oct-07 07:30N 33°37' W 117°55'0 0.0
2017-Oct-07 07:00N 33°37' W 117°55'0 0.0
2017-Oct-07 06:30N 33°37' W 117°55'0 0.0
2017-Oct-07 06:00N 33°37' W 117°55'0 0.0
2017-Oct-07 05:30N 33°37' W 117°55'0 0.0
2017-Oct-07 05:00N 33°37' W 117°55'0 0.0
2017-Oct-07 03:15N 33°37' W 117°55'0 0.0
2017-Oct-07 03:00N 33°37' W 117°55'0 0.0
2017-Oct-07 02:27N 33°37' W 117°55'0 0.0
2017-Oct-07 01:51N 33°37' W 117°55'0 0.0
2017-Oct-07 01:30N 33°37' W 117°55'0 0.0
2017-Oct-07 01:00N 33°37' W 117°55'0 0.0
2017-Oct-07 00:30N 33°37' W 117°55'0 0.0
2017-Oct-07 00:00N 33°37' W 117°55'0 0.0
2017-Oct-06 23:30N 33°37' W 117°55'0 0.0
2017-Oct-06 23:00N 33°37' W 117°55'0 0.0
2017-Oct-06 22:30N 33°37' W 117°55'0 0.0
2017-Oct-06 22:00N 33°37' W 117°55'0 0.0
2017-Oct-06 21:30N 33°37' W 117°55'0 0.0
2017-Oct-06 20:57N 33°37' W 117°55'0 0.0
2017-Oct-06 20:30N 33°37' W 117°55'0 0.0
2017-Oct-06 19:57N 33°37' W 117°55'0 0.0
2017-Oct-06 19:27N 33°37' W 117°55'0 0.0
2017-Oct-06 19:00N 33°37' W 117°55'0 0.0
2017-Oct-06 18:27N 33°37' W 117°55'0 0.0
2017-Oct-06 17:57N 33°37' W 117°55'0 0.0
2017-Oct-06 17:30N 33°37' W 117°55'0 0.0
2017-Oct-06 17:00N 33°37' W 117°55'0 0.0
2017-Oct-06 16:30N 33°37' W 117°55'0 0.0
2017-Oct-06 16:00N 33°37' W 117°55'0 0.0
2017-Oct-06 15:15N 33°37' W 117°55'0 0.0
2017-Oct-06 14:51N 33°37' W 117°55'0 0.0
2017-Oct-06 14:30N 33°37' W 117°55'0 0.0
2017-Oct-06 14:00N 33°37' W 117°55'0 0.0
2017-Oct-06 13:27N 33°37' W 117°55'0 0.0
2017-Oct-06 12:57N 33°37' W 117°55'0 0.0
2017-Oct-06 12:30N 33°37' W 117°55'0 0.0
2017-Oct-06 12:00N 33°37' W 117°55'0 0.0
2017-Oct-06 11:30N 33°37' W 117°55'0 0.0
2017-Oct-06 10:57N 33°37' W 117°55'0 0.0
2017-Oct-06 10:30N 33°37' W 117°55'0 0.0
2017-Oct-06 10:00N 33°37' W 117°55'0 0.0
2017-Oct-06 09:30N 33°37' W 117°55'0 0.0
2017-Oct-06 09:00N 33°37' W 117°55'0 0.0
2017-Oct-06 08:27N 33°37' W 117°55'0 0.0
2017-Oct-06 08:00N 33°37' W 117°55'0 0.0
2017-Oct-06 07:30N 33°37' W 117°55'0 0.0
2017-Oct-06 06:57N 33°37' W 117°55'0 0.0
2017-Oct-06 06:27N 33°37' W 117°55'0 0.0
2017-Oct-06 06:00N 33°37' W 117°55'0 0.0
2017-Oct-06 05:18N 33°37' W 117°55'0 0.0
2017-Oct-06 05:00N 33°37' W 117°55'0 0.0
2017-Oct-06 04:30N 33°37' W 117°55'0 0.0
2017-Oct-06 04:00N 33°37' W 117°55'0 0.0
2017-Oct-06 03:30N 33°37' W 117°55'0 0.0
2017-Oct-06 02:57N 33°37' W 117°55'0 0.0
2017-Oct-06 02:30N 33°37' W 117°55'0 0.0
2017-Oct-06 01:57N 33°37' W 117°55'0 0.0
2017-Oct-06 01:27N 33°37' W 117°55'0 0.0
2017-Oct-06 00:57N 33°37' W 117°55'0 0.0
2017-Oct-06 00:11N 33°37' W 117°55'0 0.0
2017-Oct-05 23:32N 33°37' W 117°55'0 0.1
2017-Oct-05 23:26N 33°37' W 117°55'0 0.0
2017-Oct-05 22:59N 33°37' W 117°55'0 0.0
2017-Oct-05 22:26N 33°37' W 117°55'0 0.0
2017-Oct-05 21:59N 33°37' W 117°55'0 0.0
2017-Oct-05 21:29N 33°37' W 117°55'0 0.0
2017-Oct-05 20:59N 33°37' W 117°55'2 3.6
2017-Oct-05 20:26N 33°36' W 117°53'2 3.7
2017-Oct-05 20:00N 33°37' W 117°54'0 0.7
2017-Oct-05 19:30N 33°37' W 117°55'0 0.0
2017-Oct-05 19:00N 33°37' W 117°55'0 0.0
2017-Oct-05 18:30N 33°37' W 117°55'  
Track history (hours):
 
Tides and Currents Weather Stations Pressure Air Temp Water Temp Dewpoint Dewpoint Depression Visibility Wind Speed Wind Dir Waves Ship Positions

Tasia

Last reported at 2017-Oct-15 18:11 UTC. Time now 2017-Oct-20 01:46 UTC.
Position N 33°37' W 117°56'.

Length 34 m.

Type: Pleasure craft. MMSI: 319102700.

Date/timePositionNaut miles runAvg speedWind from/ knotsBaromVisibWave heightAir tempDewpointWater temp
2017-Oct-15 18:11N 33°37' W 117°56'0 1.3
2017-Oct-15 18:00N 33°37' W 117°55'0 0.5
2017-Oct-15 17:30N 33°37' W 117°55'1 1.1
2017-Oct-15 17:00N 33°37' W 117°55'0 0.0
2017-Oct-15 16:27N 33°37' W 117°55'0 0.0
2017-Oct-15 16:00N 33°37' W 117°55'0 0.0
2017-Oct-15 15:30N 33°37' W 117°55'0 0.0
2017-Oct-15 15:00N 33°37' W 117°55'0 0.0
2017-Oct-15 14:00N 33°37' W 117°55'0 0.0
2017-Oct-15 13:30N 33°37' W 117°55'0 0.0
2017-Oct-15 13:00N 33°37' W 117°55'0 0.0
2017-Oct-15 12:30N 33°37' W 117°55'0 0.0
2017-Oct-15 11:57N 33°37' W 117°55'0 0.0
2017-Oct-15 11:30N 33°37' W 117°55'0 0.0
2017-Oct-15 10:57N 33°37' W 117°55'0 0.0
2017-Oct-15 10:30N 33°37' W 117°55'0 0.0
2017-Oct-15 10:00N 33°37' W 117°55'0 0.0
2017-Oct-15 09:30N 33°37' W 117°55'0 0.0
2017-Oct-15 09:00N 33°37' W 117°55'0 0.0
2017-Oct-15 08:27N 33°37' W 117°55'0 0.0
2017-Oct-15 08:00N 33°37' W 117°55'0 0.0
2017-Oct-15 07:12N 33°37' W 117°55'0 0.0
2017-Oct-15 07:00N 33°37' W 117°55'0 0.0
2017-Oct-15 06:24N 33°37' W 117°55'0 0.0
2017-Oct-15 05:54N 33°37' W 117°55'0 0.0
2017-Oct-15 05:24N 33°37' W 117°55'0 0.0
2017-Oct-15 05:00N 33°37' W 117°55'0 0.0
2017-Oct-15 03:54N 33°37' W 117°55'0 0.0
2017-Oct-15 03:30N 33°37' W 117°55'0 0.0
2017-Oct-15 02:51N 33°37' W 117°55'0 0.0
2017-Oct-15 02:24N 33°37' W 117°55'0 0.0
2017-Oct-15 02:00N 33°37' W 117°55'0 0.0
2017-Oct-15 01:30N 33°37' W 117°55'0 0.0
2017-Oct-15 01:00N 33°37' W 117°55'0 0.0
2017-Oct-15 00:30N 33°37' W 117°55'0 0.0
2017-Oct-15 00:00N 33°37' W 117°55'0 0.0
2017-Oct-14 23:30N 33°37' W 117°55'0 0.0
2017-Oct-14 23:00N 33°37' W 117°55'0 0.0
2017-Oct-14 22:30N 33°37' W 117°55'0 0.0
2017-Oct-14 22:00N 33°37' W 117°55'0 0.0
2017-Oct-14 20:21N 33°37' W 117°55'0 0.0
2017-Oct-14 20:00N 33°37' W 117°55'0 0.0
2017-Oct-14 19:27N 33°37' W 117°55'1 1.3
2017-Oct-14 19:00N 33°37' W 117°54'2 4.8
2017-Oct-14 18:30N 33°34' W 117°54'4 7.2
2017-Oct-14 17:58N 33°32' W 117°58'510.1
2017-Oct-14 17:30N 33°35' W 117°53'1 1.0
2017-Oct-14 16:57N 33°35' W 117°53'0 1.1
2017-Oct-14 16:30N 33°36' W 117°53'2 4.2
2017-Oct-14 16:00N 33°37' W 117°55'0 0.0
2017-Oct-14 13:24N 33°37' W 117°55'0 0.0
2017-Oct-14 12:54N 33°37' W 117°55'0 0.0
2017-Oct-14 12:27N 33°37' W 117°55'0 0.0
2017-Oct-14 11:48N 33°37' W 117°55'0 0.0
2017-Oct-14 11:24N 33°37' W 117°55'0 0.0
2017-Oct-14 10:57N 33°37' W 117°55'0 0.0
2017-Oct-14 08:28N 33°37' W 117°55'0 0.0
2017-Oct-14 07:19N 33°37' W 117°55'0 0.0
2017-Oct-14 06:58N 33°37' W 117°55'0 0.0
2017-Oct-14 06:04N 33°37' W 117°55'0 0.0
2017-Oct-14 04:10N 33°37' W 117°55'0 0.0
2017-Oct-14 03:55N 33°37' W 117°55'0 0.0
2017-Oct-14 03:30N 33°37' W 117°55'0 0.0
2017-Oct-14 03:01N 33°37' W 117°55'0 0.0
2017-Oct-14 02:25N 33°37' W 117°55'0 0.0
2017-Oct-14 01:37N 33°37' W 117°55'0 0.0
2017-Oct-13 23:49N 33°37' W 117°55'0 0.0
2017-Oct-13 23:24N 33°37' W 117°55'0 0.0
2017-Oct-13 19:25N 33°37' W 117°55'0 0.0
2017-Oct-13 18:55N 33°37' W 117°55'0 0.0
2017-Oct-13 18:25N 33°37' W 117°55'0 0.0
2017-Oct-13 17:55N 33°37' W 117°55'0 0.0
2017-Oct-13 15:55N 33°37' W 117°55'0 0.0
2017-Oct-13 15:27N 33°37' W 117°55'0 0.0
2017-Oct-13 14:31N 33°37' W 117°55'0 0.0
2017-Oct-13 14:13N 33°37' W 117°55'0 0.0
2017-Oct-13 11:49N 33°37' W 117°55'0 0.0
2017-Oct-13 11:01N 33°37' W 117°55'0 0.0
2017-Oct-13 10:58N 33°37' W 117°55'0 0.0
2017-Oct-13 10:31N 33°37' W 117°55'0 0.0
2017-Oct-13 10:01N 33°37' W 117°55'0 0.0
2017-Oct-13 09:31N 33°37' W 117°55'0 0.0
2017-Oct-13 08:01N 33°37' W 117°55'0 0.0
2017-Oct-13 07:28N 33°37' W 117°55'0 0.0
2017-Oct-13 06:01N 33°37' W 117°55'0 0.0
2017-Oct-13 05:43N 33°37' W 117°55'0 0.0
2017-Oct-13 05:22N 33°37' W 117°55'0 0.0
2017-Oct-13 02:49N 33°37' W 117°55'0 0.0
2017-Oct-13 02:25N 33°37' W 117°55'0 0.0
2017-Oct-12 21:01N 33°37' W 117°55'0 0.0
2017-Oct-12 13:34N 33°37' W 117°55'0 0.0
2017-Oct-12 13:22N 33°37' W 117°55'0 0.0
2017-Oct-12 12:52N 33°37' W 117°55'0 0.0
2017-Oct-12 12:25N 33°37' W 117°55'0 0.0
2017-Oct-12 10:04N 33°37' W 117°55'0 0.0
2017-Oct-12 09:58N 33°37' W 117°55'0 0.0
2017-Oct-12 07:58N 33°37' W 117°55'0 0.0
2017-Oct-12 04:10N 33°37' W 117°55'0 0.0
2017-Oct-12 03:25N 33°37' W 117°55'0 0.0
2017-Oct-12 02:58N 33°37' W 117°55'0 0.0
2017-Oct-11 23:58N 33°37' W 117°55'0 0.0
2017-Oct-11 22:43N 33°37' W 117°55'0 0.0
2017-Oct-11 22:28N 33°37' W 117°55'0 0.0
2017-Oct-11 21:58N 33°37' W 117°55'0 0.0
2017-Oct-11 21:28N 33°37' W 117°55'0 0.0
2017-Oct-11 17:10N 33°37' W 117°55'0 0.0
2017-Oct-10 23:58N 33°37' W 117°55'0 0.0
2017-Oct-10 23:22N 33°37' W 117°55'0 0.0
2017-Oct-10 22:58N 33°37' W 117°55'0 0.0
2017-Oct-10 22:22N 33°37' W 117°55'0 0.0
2017-Oct-10 21:58N 33°37' W 117°55'0 0.0
2017-Oct-10 21:28N 33°37' W 117°55'0 0.0
2017-Oct-10 20:58N 33°37' W 117°55'0 0.0
2017-Oct-10 20:28N 33°37' W 117°55'0 0.0
2017-Oct-10 19:58N 33°37' W 117°55'0 0.0
2017-Oct-10 19:28N 33°37' W 117°55'0 0.0
2017-Oct-10 18:58N 33°37' W 117°55'0 0.0
2017-Oct-10 18:28N 33°37' W 117°55'0 0.0
2017-Oct-10 17:58N 33°37' W 117°55'0 0.0
2017-Oct-10 17:28N 33°37' W 117°55'0 0.0
2017-Oct-10 16:58N 33°37' W 117°55'0 0.0
2017-Oct-10 16:28N 33°37' W 117°55'0 0.0
2017-Oct-10 15:58N 33°37' W 117°55'0 0.0
2017-Oct-10 15:22N 33°37' W 117°55'0 0.0
2017-Oct-10 14:55N 33°37' W 117°55'0 0.0
2017-Oct-10 13:58N 33°37' W 117°55'0 0.0
2017-Oct-10 13:28N 33°37' W 117°55'0 0.0
2017-Oct-10 12:58N 33°37' W 117°55'0 0.0
2017-Oct-10 11:28N 33°37' W 117°55'0 0.0
2017-Oct-10 10:58N 33°37' W 117°55'0 0.0
2017-Oct-10 10:28N 33°37' W 117°55'0 0.0
2017-Oct-10 09:58N 33°37' W 117°55'0 0.0
2017-Oct-10 09:28N 33°37' W 117°55'0 0.0
2017-Oct-10 08:58N 33°37' W 117°55'0 0.0
2017-Oct-10 07:34N 33°37' W 117°55'0 0.0
2017-Oct-10 07:10N 33°37' W 117°55'0 0.0
2017-Oct-10 06:52N 33°37' W 117°55'0 0.0
2017-Oct-10 06:25N 33°37' W 117°55'0 0.0
2017-Oct-10 05:58N 33°37' W 117°55'0 0.0
2017-Oct-10 05:25N 33°37' W 117°55'0 0.0
2017-Oct-10 04:58N 33°37' W 117°55'0 0.0
2017-Oct-10 04:28N 33°37' W 117°55'0 0.0
2017-Oct-10 03:58N 33°37' W 117°55'0 0.0
2017-Oct-10 03:10N 33°37' W 117°55'0 0.0
2017-Oct-10 02:55N 33°37' W 117°55'0 0.0
2017-Oct-10 02:28N 33°37' W 117°55'0 0.0
2017-Oct-10 01:55N 33°37' W 117°55'0 0.0
2017-Oct-10 01:28N 33°37' W 117°55'0 0.0
2017-Oct-10 00:58N 33°37' W 117°55'0 0.0
2017-Oct-10 00:28N 33°37' W 117°55'0 0.0
2017-Oct-09 23:58N 33°37' W 117°55'0 0.0
2017-Oct-09 23:28N 33°37' W 117°55'0 0.0
2017-Oct-09 22:58N 33°37' W 117°55'0 0.0
2017-Oct-09 22:28N 33°37' W 117°55'0 0.0
2017-Oct-09 21:55N 33°37' W 117°55'0 0.0
2017-Oct-09 21:30N 33°37' W 117°55'0 0.0
2017-Oct-09 21:00N 33°37' W 117°55'0 0.0
2017-Oct-09 20:30N 33°37' W 117°55'0 0.0
2017-Oct-09 19:57N 33°37' W 117°55'0 0.0
2017-Oct-09 19:09N 33°37' W 117°55'0 0.0
2017-Oct-09 18:09N 33°37' W 117°55'0 0.0
2017-Oct-09 17:51N 33°37' W 117°55'0 0.0
2017-Oct-09 17:09N 33°37' W 117°55'0 0.0
2017-Oct-09 15:09N 33°37' W 117°55'0 0.0
2017-Oct-09 14:57N 33°37' W 117°55'0 0.0
2017-Oct-09 14:21N 33°37' W 117°55'0 0.0
2017-Oct-09 13:39N 33°37' W 117°55'0 0.0
2017-Oct-09 13:27N 33°37' W 117°55'0 0.0
2017-Oct-09 12:51N 33°37' W 117°55'0 0.0
2017-Oct-09 12:03N 33°37' W 117°55'0 0.0
2017-Oct-09 11:57N 33°37' W 117°55'0 0.0
2017-Oct-09 10:45N 33°37' W 117°55'0 0.0
2017-Oct-09 10:27N 33°37' W 117°55'0 0.0
2017-Oct-09 09:57N 33°37' W 117°55'0 0.0
2017-Oct-09 08:57N 33°37' W 117°55'0 0.0
2017-Oct-09 08:27N 33°37' W 117°55'0 0.0
2017-Oct-09 07:57N 33°37' W 117°55'0 0.0
2017-Oct-09 07:15N 33°37' W 117°55'0 0.0
2017-Oct-09 06:57N 33°37' W 117°55'0 0.0
2017-Oct-09 06:27N 33°37' W 117°55'0 0.0
2017-Oct-09 05:45N 33°37' W 117°55'0 0.0
2017-Oct-09 05:27N 33°37' W 117°55'0 0.0
2017-Oct-09 04:54N 33°37' W 117°55'0 0.0
2017-Oct-09 04:09N 33°37' W 117°55'0 0.0
2017-Oct-09 04:00N 33°37' W 117°55'0 0.0
2017-Oct-09 03:21N 33°37' W 117°55'0 0.0
2017-Oct-09 02:57N 33°37' W 117°55'0 0.0
2017-Oct-09 02:21N 33°37' W 117°55'0 0.0
2017-Oct-09 01:45N 33°37' W 117°55'0 0.0
2017-Oct-09 01:21N 33°37' W 117°55'0 0.0
2017-Oct-09 00:09N 33°37' W 117°55'0 0.0
2017-Oct-08 23:45N 33°37' W 117°55'0 0.0
2017-Oct-08 23:27N 33°37' W 117°55'0 0.0
2017-Oct-08 23:00N 33°37' W 117°55'0 0.0
2017-Oct-08 22:15N 33°37' W 117°55'0 0.0
2017-Oct-08 21:57N 33°37' W 117°55'0 0.0
2017-Oct-08 21:15N 33°37' W 117°55'0 0.0
2017-Oct-08 20:09N 33°37' W 117°55'0 0.0
2017-Oct-08 19:45N 33°37' W 117°55'0 0.0
2017-Oct-08 19:15N 33°37' W 117°55'0 0.0
2017-Oct-08 18:57N 33°37' W 117°55'0 0.0
2017-Oct-08 18:15N 33°37' W 117°55'0 0.0
2017-Oct-08 17:51N 33°37' W 117°55'0 0.0
2017-Oct-08 17:03N 33°37' W 117°55'0 0.0
2017-Oct-08 16:51N 33°37' W 117°55'0 0.0
2017-Oct-08 16:27N 33°37' W 117°55'0 0.0
2017-Oct-08 15:57N 33°37' W 117°55'0 0.0
2017-Oct-08 15:27N 33°37' W 117°55'0 0.0
2017-Oct-08 14:57N 33°37' W 117°55'0 0.0
2017-Oct-08 14:24N 33°37' W 117°55'0 0.0
2017-Oct-08 14:00N 33°37' W 117°55'0 0.0
2017-Oct-08 13:30N 33°37' W 117°55'0 0.0
2017-Oct-08 12:51N 33°37' W 117°55'0 0.0
2017-Oct-08 12:30N 33°37' W 117°55'0 0.0
2017-Oct-08 12:00N 33°37' W 117°55'0 0.0
2017-Oct-08 10:54N 33°37' W 117°55'0 0.0
2017-Oct-08 10:27N 33°37' W 117°55'0 0.0
2017-Oct-08 09:45N 33°37' W 117°55'0 0.0
2017-Oct-08 09:30N 33°37' W 117°55'0 0.0
2017-Oct-08 09:00N 33°37' W 117°55'0 0.0
2017-Oct-08 08:27N 33°37' W 117°55'0 0.0
2017-Oct-08 08:00N 33°37' W 117°55'0 0.0
2017-Oct-08 07:30N 33°37' W 117°55'0 0.0
2017-Oct-08 07:00N 33°37' W 117°55'0 0.0
2017-Oct-08 06:15N 33°37' W 117°55'0 0.0
2017-Oct-08 06:00N 33°37' W 117°55'0 0.0
2017-Oct-08 05:27N 33°37' W 117°55'0 0.0
2017-Oct-08 05:00N 33°37' W 117°55'0 0.0
2017-Oct-08 04:30N 33°37' W 117°55'0 0.0
2017-Oct-08 03:57N 33°37' W 117°55'0 0.0
2017-Oct-08 03:27N 33°37' W 117°55'0 0.0
2017-Oct-08 02:45N 33°37' W 117°55'0 0.0
2017-Oct-08 02:21N 33°37' W 117°55'0 0.0
2017-Oct-08 01:45N 33°37' W 117°55'0 0.0
2017-Oct-08 01:24N 33°37' W 117°55'0 0.0
2017-Oct-08 01:00N 33°37' W 117°55'0 0.0
2017-Oct-08 00:30N 33°37' W 117°55'0 0.0
2017-Oct-07 23:51N 33°37' W 117°55'0 0.0
2017-Oct-07 21:09N 33°37' W 117°55'0 0.0
2017-Oct-07 20:57N 33°37' W 117°55'0 0.0
2017-Oct-07 20:30N 33°37' W 117°55'0 0.0
2017-Oct-07 19:57N 33°37' W 117°55'0 0.0
2017-Oct-07 17:51N 33°37' W 117°55'0 0.0
2017-Oct-07 17:30N 33°37' W 117°55'0 0.0
2017-Oct-07 17:00N 33°37' W 117°55'0 0.0
2017-Oct-07 16:30N 33°37' W 117°55'0 0.0
2017-Oct-07 16:00N 33°37' W 117°55'0 0.0
2017-Oct-07 15:24N 33°37' W 117°55'0 0.0
2017-Oct-07 14:57N 33°37' W 117°55'0 0.0
2017-Oct-07 12:03N 33°37' W 117°55'0 0.0
2017-Oct-07 12:00N 33°37' W 117°55'0 0.0
2017-Oct-07 11:18N 33°37' W 117°55'0 0.0
2017-Oct-07 10:33N 33°37' W 117°55'0 0.0
2017-Oct-07 10:27N 33°37' W 117°55'0 0.0
2017-Oct-07 09:45N 33°37' W 117°55'0 0.0
2017-Oct-07 09:27N 33°37' W 117°55'0 0.0
2017-Oct-07 09:00N 33°37' W 117°55'0 0.0
2017-Oct-07 08:30N 33°37' W 117°55'0 0.0
2017-Oct-07 08:00N 33°37' W 117°55'0 0.0
2017-Oct-07 07:30N 33°37' W 117°55'0 0.0
2017-Oct-07 07:00N 33°37' W 117°55'0 0.0
2017-Oct-07 06:30N 33°37' W 117°55'0 0.0
2017-Oct-07 06:00N 33°37' W 117°55'0 0.0
2017-Oct-07 05:30N 33°37' W 117°55'0 0.0
2017-Oct-07 05:00N 33°37' W 117°55'0 0.0
2017-Oct-07 03:15N 33°37' W 117°55'0 0.0
2017-Oct-07 03:00N 33°37' W 117°55'0 0.0
2017-Oct-07 02:27N 33°37' W 117°55'0 0.0
2017-Oct-07 01:51N 33°37' W 117°55'0 0.0
2017-Oct-07 01:30N 33°37' W 117°55'0 0.0
2017-Oct-07 01:00N 33°37' W 117°55'0 0.0
2017-Oct-07 00:30N 33°37' W 117°55'0 0.0
2017-Oct-07 00:00N 33°37' W 117°55'0 0.0
2017-Oct-06 23:30N 33°37' W 117°55'0 0.0
2017-Oct-06 23:00N 33°37' W 117°55'0 0.0
2017-Oct-06 22:30N 33°37' W 117°55'0 0.0
2017-Oct-06 22:00N 33°37' W 117°55'0 0.0
2017-Oct-06 21:30N 33°37' W 117°55'0 0.0
2017-Oct-06 20:57N 33°37' W 117°55'0 0.0
2017-Oct-06 20:30N 33°37' W 117°55'0 0.0
2017-Oct-06 19:57N 33°37' W 117°55'0 0.0
2017-Oct-06 19:27N 33°37' W 117°55'0 0.0
2017-Oct-06 19:00N 33°37' W 117°55'0 0.0
2017-Oct-06 18:27N 33°37' W 117°55'0 0.0
2017-Oct-06 17:57N 33°37' W 117°55'0 0.0
2017-Oct-06 17:30N 33°37' W 117°55'0 0.0
2017-Oct-06 17:00N 33°37' W 117°55'0 0.0
2017-Oct-06 16:30N 33°37' W 117°55'0 0.0
2017-Oct-06 16:00N 33°37' W 117°55'0 0.0
2017-Oct-06 15:15N 33°37' W 117°55'0 0.0
2017-Oct-06 14:51N 33°37' W 117°55'0 0.0
2017-Oct-06 14:30N 33°37' W 117°55'0 0.0
2017-Oct-06 14:00N 33°37' W 117°55'0 0.0
2017-Oct-06 13:27N 33°37' W 117°55'0 0.0
2017-Oct-06 12:57N 33°37' W 117°55'0 0.0
2017-Oct-06 12:30N 33°37' W 117°55'0 0.0
2017-Oct-06 12:00N 33°37' W 117°55'0 0.0
2017-Oct-06 11:30N 33°37' W 117°55'0 0.0
2017-Oct-06 10:57N 33°37' W 117°55'0 0.0
2017-Oct-06 10:30N 33°37' W 117°55'0 0.0
2017-Oct-06 10:00N 33°37' W 117°55'0 0.0
2017-Oct-06 09:30N 33°37' W 117°55'0 0.0
2017-Oct-06 09:00N 33°37' W 117°55'0 0.0
2017-Oct-06 08:27N 33°37' W 117°55'0 0.0
2017-Oct-06 08:00N 33°37' W 117°55'0 0.0
2017-Oct-06 07:30N 33°37' W 117°55'0 0.0
2017-Oct-06 06:57N 33°37' W 117°55'0 0.0
2017-Oct-06 06:27N 33°37' W 117°55'0 0.0
2017-Oct-06 06:00N 33°37' W 117°55'0 0.0
2017-Oct-06 05:18N 33°37' W 117°55'0 0.0
2017-Oct-06 05:00N 33°37' W 117°55'0 0.0
2017-Oct-06 04:30N 33°37' W 117°55'0 0.0
2017-Oct-06 04:00N 33°37' W 117°55'0 0.0
2017-Oct-06 03:30N 33°37' W 117°55'0 0.0
2017-Oct-06 02:57N 33°37' W 117°55'0 0.0
2017-Oct-06 02:30N 33°37' W 117°55'0 0.0
2017-Oct-06 01:57N 33°37' W 117°55'0 0.0
2017-Oct-06 01:27N 33°37' W 117°55'0 0.0
2017-Oct-06 00:57N 33°37' W 117°55'0 0.0
2017-Oct-06 00:11N 33°37' W 117°55'0 0.0
2017-Oct-05 23:32N 33°37' W 117°55'0 0.1
2017-Oct-05 23:26N 33°37' W 117°55'0 0.0
2017-Oct-05 22:59N 33°37' W 117°55'0 0.0
2017-Oct-05 22:26N 33°37' W 117°55'0 0.0
2017-Oct-05 21:59N 33°37' W 117°55'0 0.0
2017-Oct-05 21:29N 33°37' W 117°55'0 0.0
2017-Oct-05 20:59N 33°37' W 117°55'2 3.6
2017-Oct-05 20:26N 33°36' W 117°53'2 3.7
2017-Oct-05 20:00N 33°37' W 117°54'0 0.7
2017-Oct-05 19:30N 33°37' W 117°55'0 0.0
2017-Oct-05 19:00N 33°37' W 117°55'0 0.0
2017-Oct-05 18:30N 33°37' W 117°55'  

Dump ship's entire track history